Esmeralda — CCES — position and weather

sailwx.info

Track history (hours):
 
Tides and Currents Weather Stations Pressure Air Temp Water Temp Dewpoint Dewpoint Depression Visibility Wind Speed Wind Dir Waves Ship Positions

Esmeralda (Chile)

Last reported at 2017-Jan-14 23:26 UTC. Time now 2017-Jan-19 21:16 UTC.
Position S 33°02' W 071°37'.

Length 113 m; draft 7 m.

Type: Military. MMSI: 725019006.

Date/timePositionNaut miles runAvg speedWind from/ knotsBaromVisibWave heightAir tempDewpointWater temp
2017-Jan-14 23:26S 33°02' W 071°37'  
2017-Jan-12 15:32S 33°02' W 071°37'0 0.0
2017-Jan-12 14:32S 33°02' W 071°37'0 0.0
2017-Jan-11 23:32S 33°02' W 071°37'0 0.0
2017-Jan-11 22:32S 33°02' W 071°37'0 0.0
2017-Jan-11 21:32S 33°02' W 071°37'0 0.0
2017-Jan-11 20:26S 33°02' W 071°37'0 0.0
2017-Jan-11 19:23S 33°02' W 071°37'0 0.0
2017-Jan-11 18:11S 33°02' W 071°37'0 0.0
2017-Jan-11 17:14S 33°02' W 071°37'0 0.0
2017-Jan-11 14:29S 33°02' W 071°37'0 0.0
2017-Jan-11 12:14S 33°02' W 071°37'0 0.0
2017-Jan-11 11:20S 33°02' W 071°37'0 0.0
2017-Jan-11 10:32S 33°02' W 071°37'0 0.0
2017-Jan-10 23:29S 33°02' W 071°37'0 0.0
2017-Jan-10 22:32S 33°02' W 071°37'0 0.0
2017-Jan-10 21:26S 33°02' W 071°37'0 0.0
2017-Jan-10 20:32S 33°02' W 071°37'0 0.0
2017-Jan-10 19:20S 33°02' W 071°37'0 0.0
2017-Jan-08 15:23S 33°02' W 071°37'1 1.1
2017-Jan-08 14:31S 33°01' W 071°36'3 3.5
2017-Jan-08 13:33S 32°59' W 071°34'6 6.1
2017-Jan-08 12:33S 32°53' W 071°35'8 7.4
2017-Jan-08 11:31S 32°46' W 071°31'1 0.0
2017-Jan-07 22:09S 32°46' W 071°31'0 0.0
2017-Jan-07 21:18S 32°46' W 071°31'0 0.0
2017-Jan-07 20:33S 32°46' W 071°31'0 0.0
2017-Jan-07 19:33S 32°46' W 071°31'0 0.0
2017-Jan-07 18:27S 32°46' W 071°31'0 0.0
2017-Jan-07 17:33S 32°46' W 071°31'0 0.0
2017-Jan-07 16:33S 32°46' W 071°31'0 0.0
2017-Jan-07 15:33S 32°46' W 071°31'0 0.0
2017-Jan-07 14:33S 32°46' W 071°31'0 0.0
2017-Jan-07 10:27S 32°46' W 071°31'0 0.0
2017-Jan-06 23:33S 32°46' W 071°31'0 0.0
2017-Jan-06 22:33S 32°46' W 071°31'0 0.0
2017-Jan-06 21:21S 32°46' W 071°31'0 0.0
2017-Jan-06 20:30S 32°46' W 071°31'0 0.0
2017-Jan-06 18:30S 32°46' W 071°31'0 0.0
2017-Jan-06 17:24S 32°46' W 071°31'0 0.0
2017-Jan-06 14:21S 32°46' W 071°31'0 0.0
2017-Jan-06 11:27S 32°46' W 071°31'2 2.0
2017-Jan-06 10:33S 32°45' W 071°33'7 7.4
2017-Jan-06 09:33S 32°46' W 071°42'7 6.7
2017-Jan-06 08:33S 32°48' W 071°49'20 7.8
2017-Jan-06 06:00S 32°54' W 072°12'79 6.6 200 / 131017.0 5.4 17.012.215.0
2017-Jan-05 18:00S 33°18' W 073°42'26 4.3 180 / 201016.0 5.4 16.812.215.0
2017-Jan-05 12:00S 33°24' W 074°12'30 5.0 180 / 271015.0 5.4 16.011.315.0
2017-Jan-05 06:00S 33°24' W 074°48'26 4.3 180 / 281015.0 5.4 17.011.915.0
2017-Jan-05 00:00S 33°30' W 075°18'   180 / 281016.5 5.4 17.011.915.0
Track history (hours):
 
Tides and Currents Weather Stations Pressure Air Temp Water Temp Dewpoint Dewpoint Depression Visibility Wind Speed Wind Dir Waves Ship Positions

Esmeralda (Chile)

Last reported at 2017-Jan-14 23:26 UTC. Time now 2017-Jan-19 21:16 UTC.
Position S 33°02' W 071°37'.

Length 113 m; draft 7 m.

Type: Military. MMSI: 725019006.

Date/timePositionNaut miles runAvg speedWind from/ knotsBaromVisibWave heightAir tempDewpointWater temp
2017-Jan-14 23:26S 33°02' W 071°37'  
2017-Jan-12 15:32S 33°02' W 071°37'0 0.0
2017-Jan-12 14:32S 33°02' W 071°37'0 0.0
2017-Jan-11 23:32S 33°02' W 071°37'0 0.0
2017-Jan-11 22:32S 33°02' W 071°37'0 0.0
2017-Jan-11 21:32S 33°02' W 071°37'0 0.0
2017-Jan-11 20:26S 33°02' W 071°37'0 0.0
2017-Jan-11 19:23S 33°02' W 071°37'0 0.0
2017-Jan-11 18:11S 33°02' W 071°37'0 0.0
2017-Jan-11 17:14S 33°02' W 071°37'0 0.0
2017-Jan-11 14:29S 33°02' W 071°37'0 0.0
2017-Jan-11 12:14S 33°02' W 071°37'0 0.0
2017-Jan-11 11:20S 33°02' W 071°37'0 0.0
2017-Jan-11 10:32S 33°02' W 071°37'0 0.0
2017-Jan-10 23:29S 33°02' W 071°37'0 0.0
2017-Jan-10 22:32S 33°02' W 071°37'0 0.0
2017-Jan-10 21:26S 33°02' W 071°37'0 0.0
2017-Jan-10 20:32S 33°02' W 071°37'0 0.0
2017-Jan-10 19:20S 33°02' W 071°37'0 0.0
2017-Jan-08 15:23S 33°02' W 071°37'1 1.1
2017-Jan-08 14:31S 33°01' W 071°36'3 3.5
2017-Jan-08 13:33S 32°59' W 071°34'6 6.1
2017-Jan-08 12:33S 32°53' W 071°35'8 7.4
2017-Jan-08 11:31S 32°46' W 071°31'1 0.0
2017-Jan-07 22:09S 32°46' W 071°31'0 0.0
2017-Jan-07 21:18S 32°46' W 071°31'0 0.0
2017-Jan-07 20:33S 32°46' W 071°31'0 0.0
2017-Jan-07 19:33S 32°46' W 071°31'0 0.0
2017-Jan-07 18:27S 32°46' W 071°31'0 0.0
2017-Jan-07 17:33S 32°46' W 071°31'0 0.0
2017-Jan-07 16:33S 32°46' W 071°31'0 0.0
2017-Jan-07 15:33S 32°46' W 071°31'0 0.0
2017-Jan-07 14:33S 32°46' W 071°31'0 0.0
2017-Jan-07 10:27S 32°46' W 071°31'0 0.0
2017-Jan-06 23:33S 32°46' W 071°31'0 0.0
2017-Jan-06 22:33S 32°46' W 071°31'0 0.0
2017-Jan-06 21:21S 32°46' W 071°31'0 0.0
2017-Jan-06 20:30S 32°46' W 071°31'0 0.0
2017-Jan-06 18:30S 32°46' W 071°31'0 0.0
2017-Jan-06 17:24S 32°46' W 071°31'0 0.0
2017-Jan-06 14:21S 32°46' W 071°31'0 0.0
2017-Jan-06 11:27S 32°46' W 071°31'2 2.0
2017-Jan-06 10:33S 32°45' W 071°33'7 7.4
2017-Jan-06 09:33S 32°46' W 071°42'7 6.7
2017-Jan-06 08:33S 32°48' W 071°49'20 7.8
2017-Jan-06 06:00S 32°54' W 072°12'79 6.6 200 / 131017.0 5.4 17.012.215.0
2017-Jan-05 18:00S 33°18' W 073°42'26 4.3 180 / 201016.0 5.4 16.812.215.0
2017-Jan-05 12:00S 33°24' W 074°12'30 5.0 180 / 271015.0 5.4 16.011.315.0
2017-Jan-05 06:00S 33°24' W 074°48'26 4.3 180 / 281015.0 5.4 17.011.915.0
2017-Jan-05 00:00S 33°30' W 075°18'   180 / 281016.5 5.4 17.011.915.0

Dump ship's entire track history